Time;durP1;ratioP1;P1;durP2;ratioP2;P2;SDS_P1;SDS_P2;PMS_P1;PMS_P2;Temp;Humidity;BMP_temperature;BMP_pressure;BME280_temperature;BME280_humidity;BME280_pressure;Samples;Min_cycle;Max_cycle;Signal;HPM_P1;HPM_P2
2022/07/05 00:00:14;;;;;;;3.72;3.42;;;;;;;27.51;55.16;100038.97;5022244;28;20232;-72
2022/07/05 00:02:41;;;;;;;4.30;3.50;;;;;;;27.60;54.85;100061.59;4995867;28;20211;-72
2022/07/05 00:05:08;;;;;;;5.43;3.60;;;;;;;27.44;55.88;100063.34;5030970;28;20207;-72
2022/07/05 00:07:35;;;;;;;5.13;3.00;;;;;;;27.22;54.12;100006.91;4986618;28;20207;-71
2022/07/05 00:10:04;;;;;;;7.07;3.53;;;;;;;27.53;54.11;100054.91;5011028;28;20200;-71
2022/07/05 00:12:33;;;;;;;5.40;3.00;;;;;;;27.27;54.93;100037.63;5008247;28;20203;-72
2022/07/05 00:15:00;;;;;;;3.80;2.80;;;;;;;27.31;54.85;100048.97;5030982;28;20223;-72
2022/07/05 00:17:27;;;;;;;3.75;3.40;;;;;;;27.23;54.75;100051.19;5030690;28;20200;-72
2022/07/05 00:19:54;;;;;;;3.40;3.05;;;;;;;27.04;54.59;100012.25;5030895;28;20295;-71
2022/07/05 00:22:21;;;;;;;3.47;2.92;;;;;;;27.16;54.89;100042.69;5030704;28;20613;-72
2022/07/05 00:24:47;;;;;;;4.82;2.90;;;;;;;27.15;54.89;100042.78;5030793;28;20668;-72
2022/07/05 00:27:15;;;;;;;3.53;2.60;;;;;;;27.14;55.12;100036.59;5030151;28;20257;-72
2022/07/05 00:29:42;;;;;;;4.43;2.63;;;;;;;27.09;55.31;100036.81;5029836;28;20208;-72
2022/07/05 00:32:09;;;;;;;3.33;3.03;;;;;;;26.81;55.33;100001.94;5030982;28;20196;-72
2022/07/05 00:34:36;;;;;;;4.72;2.78;;;;;;;27.13;55.44;100032.19;5000584;28;20232;-71
2022/07/05 00:37:03;;;;;;;2.90;2.70;;;;;;;27.11;54.95;100032.25;5034288;28;20192;-72
2022/07/05 00:39:30;;;;;;;3.30;3.10;;;;;;;27.04;56.51;100035.38;5000685;28;20188;-72
2022/07/05 00:41:57;;;;;;;3.97;3.15;;;;;;;27.06;56.11;100039.66;5034696;28;20200;-72
2022/07/05 00:44:31;;;;;;;4.35;3.05;;;;;;;27.04;59.24;100036.19;5033874;28;20621;-71
2022/07/05 00:46:59;;;;;;;5.82;3.03;;;;;;;26.70;60.00;100006.09;5034168;28;20195;-71
2022/07/05 00:49:25;;;;;;;4.18;3.10;;;;;;;26.79;59.90;100035.75;5033598;28;20561;-72
2022/07/05 00:51:52;;;;;;;4.38;3.35;;;;;;;26.82;61.03;100017.00;5034267;28;20211;-71
2022/07/05 00:54:19;;;;;;;6.35;3.33;;;;;;;26.94;67.29;100040.28;5033806;28;20207;-71
2022/07/05 00:56:46;;;;;;;5.15;3.38;;;;;;;26.90;75.59;100000.59;5034082;28;20690;-72
2022/07/05 00:59:13;;;;;;;3.88;3.58;;;;;;;27.02;76.59;100027.44;5034119;28;20204;-71
2022/07/05 01:01:41;;;;;;;9.02;3.75;;;;;;;27.01;76.70;100030.19;5033198;28;20236;-71
2022/07/05 01:04:08;;;;;;;4.07;3.20;;;;;;;26.80;76.99;100010.84;5034026;28;20192;-71
2022/07/05 01:06:35;;;;;;;3.95;3.20;;;;;;;26.46;69.88;99952.41;5033675;28;20283;-72
2022/07/05 01:09:02;;;;;;;4.43;3.00;;;;;;;26.69;68.90;99996.38;5034155;28;20211;-72
2022/07/05 01:11:30;;;;;;;7.10;2.95;;;;;;;26.64;66.39;100009.97;5033904;28;20585;-71
2022/07/05 01:13:59;;;;;;;3.22;2.90;;;;;;;26.77;64.33;100019.00;5015544;28;20653;-71
2022/07/05 01:16:27;;;;;;;3.00;2.80;;;;;;;26.62;64.04;100023.31;5033234;28;20615;-72
2022/07/05 01:18:56;;;;;;;7.10;2.90;;;;;;;26.63;63.52;100017.06;5014913;28;20631;-72
2022/07/05 01:21:26;;;;;;;3.72;3.00;;;;;;;26.62;62.35;100033.97;5033539;28;20208;-72
2022/07/05 01:23:55;;;;;;;5.10;2.70;;;;;;;26.57;62.40;100029.84;5033740;28;20609;-72
2022/07/05 01:26:22;;;;;;;2.97;2.78;;;;;;;26.63;62.47;100030.38;5033483;28;20203;-72
2022/07/05 01:28:48;;;;;;;7.65;2.90;;;;;;;26.60;62.24;100019.91;5033499;28;20215;-72
2022/07/05 01:31:15;;;;;;;3.35;3.15;;;;;;;26.48;62.83;100012.53;5033100;28;20530;-72
2022/07/05 01:33:42;;;;;;;3.15;2.90;;;;;;;26.49;64.04;100022.25;5033311;28;20211;-72
2022/07/05 01:36:12;;;;;;;4.65;2.97;;;;;;;26.52;63.86;100016.75;5033161;28;20228;-72
2022/07/05 01:38:39;;;;;;;3.25;3.05;;;;;;;26.35;63.63;100027.41;5033226;28;20201;-72
2022/07/05 01:41:09;;;;;;;3.17;2.88;;;;;;;26.32;62.69;100024.03;5033656;28;20196;-72
2022/07/05 01:43:35;;;;;;;5.07;2.65;;;;;;;26.31;62.45;100023.19;5033035;28;20201;-72
2022/07/05 01:46:05;;;;;;;3.42;2.90;;;;;;;26.34;61.51;100027.47;5032373;28;20196;-72
2022/07/05 01:48:34;;;;;;;5.78;3.00;;;;;;;26.39;60.85;100022.78;5033273;28;20198;-72
2022/07/05 01:51:04;;;;;;;6.93;3.30;;;;;;;26.38;61.54;100026.38;5033231;28;20199;-72
2022/07/05 01:53:33;;;;;;;4.25;2.90;;;;;;;26.46;60.91;100016.22;5032752;28;20192;-71
2022/07/05 01:56:01;;;;;;;3.30;3.00;;;;;;;26.36;61.39;100014.97;5032717;28;20224;-72
2022/07/05 01:58:30;;;;;;;4.32;3.13;;;;;;;26.38;61.03;100015.75;5032692;28;20208;-72
2022/07/05 02:00:59;;;;;;;8.57;3.28;;;;;;;26.27;61.11;100018.94;5032758;28;20708;-72
2022/07/05 02:03:27;;;;;;;4.72;3.10;;;;;;;26.35;59.88;100018.56;5032553;28;20196;-72
2022/07/05 02:05:55;;;;;;;4.93;2.90;;;;;;;26.18;60.46;100026.53;5032966;28;20261;-72
2022/07/05 02:08:22;;;;;;;2.80;2.60;;;;;;;26.27;60.57;100020.75;5013679;28;20211;-71
2022/07/05 02:10:49;;;;;;;3.08;2.88;;;;;;;26.46;60.08;100019.75;5032672;28;20196;-72
2022/07/05 02:13:16;;;;;;;3.22;2.90;;;;;;;26.45;60.50;100019.81;5032937;28;20235;-72
2022/07/05 02:15:44;;;;;;;3.10;2.90;;;;;;;26.34;60.74;100004.41;5032500;28;20227;-71
2022/07/05 02:18:11;;;;;;;7.07;3.50;;;;;;;25.96;59.76;99958.47;5032722;28;20606;-71
2022/07/05 02:20:40;;;;;;;3.65;3.05;;;;;;;26.43;60.04;100032.34;5032055;28;20196;-71
2022/07/05 02:23:07;;;;;;;3.35;3.05;;;;;;;26.37;59.92;100029.97;5032278;28;20204;-71
2022/07/05 02:25:34;;;;;;;3.45;2.90;;;;;;;26.36;60.42;100025.59;5032388;28;20222;-70
2022/07/05 02:28:01;;;;;;;6.43;3.72;;;;;;;26.37;61.26;100037.94;5032468;28;20200;-71
2022/07/05 02:30:28;;;;;;;3.45;3.15;;;;;;;26.20;59.94;100008.69;4996920;28;20208;-72
2022/07/05 02:32:56;;;;;;;3.58;3.30;;;;;;;26.44;61.03;100042.00;5031896;28;20215;-72
2022/07/05 02:35:23;;;;;;;4.05;3.00;;;;;;;26.32;61.90;100045.31;5032096;28;20220;-73
2022/07/05 02:37:50;;;;;;;3.80;3.47;;;;;;;26.36;63.07;100047.72;5032279;28;20204;-73
2022/07/05 02:40:17;;;;;;;8.85;3.20;;;;;;;26.40;64.00;100040.44;4997364;28;20215;-73
2022/07/05 02:42:44;;;;;;;3.78;3.10;;;;;;;26.29;64.47;100029.50;5031813;28;20200;-73
2022/07/05 02:45:11;;;;;;;4.10;3.80;;;;;;;26.47;64.17;100055.19;5032014;28;20227;-72
2022/07/05 02:47:38;;;;;;;6.40;3.47;;;;;;;26.38;63.35;100047.66;5031644;28;20204;-72
2022/07/05 02:50:09;;;;;;;3.20;2.90;;;;;;;26.41;64.30;100039.50;5031562;28;20211;-73
2022/07/05 02:52:36;;;;;;;3.67;3.40;;;;;;;26.37;61.88;100033.50;5031519;28;20211;-72
2022/07/05 02:55:03;;;;;;;7.22;2.92;;;;;;;26.46;61.41;100037.50;5012099;28;20211;-72
2022/07/05 02:57:30;;;;;;;3.22;2.90;;;;;;;26.41;63.34;100047.50;5031688;28;20569;-73
2022/07/05 02:59:58;;;;;;;4.57;3.40;;;;;;;26.43;63.02;100057.09;5032061;28;20224;-72
2022/07/05 03:02:25;;;;;;;4.05;3.00;;;;;;;26.27;62.95;100050.84;5031771;28;20200;-72
2022/07/05 03:04:52;;;;;;;4.10;2.88;;;;;;;25.50;64.15;99985.50;5031872;28;20204;-72
2022/07/05 03:07:20;;;;;;;5.32;3.15;;;;;;;26.39;63.71;100057.34;4997039;28;20196;-72
2022/07/05 03:09:47;;;;;;;3.28;2.80;;;;;;;26.42;62.68;100060.72;5031303;28;20877;-72
2022/07/05 03:12:14;;;;;;;4.18;3.53;;;;;;;26.26;69.56;100061.53;5031365;28;20212;-72
2022/07/05 03:14:40;;;;;;;5.05;3.60;;;;;;;26.17;74.70;100027.41;5031086;28;20196;-73
2022/07/05 03:17:07;;;;;;;7.93;3.75;;;;;;;26.42;77.14;100058.06;5030928;28;20777;-72
2022/07/05 03:19:34;;;;;;;11.25;4.00;;;;;;;26.48;78.83;100057.75;5031276;28;20278;-72
2022/07/05 03:22:01;;;;;;;9.88;4.10;;;;;;;26.97;78.91;100053.44;5031708;28;20969;-72
2022/07/05 03:24:29;;;;;;;6.75;3.80;;;;;;;27.27;75.33;100052.75;5031544;28;20204;-72
2022/07/05 03:26:56;;;;;;;7.75;3.60;;;;;;;27.54;71.45;100043.28;5031619;28;20200;-73
2022/07/05 03:29:22;;;;;;;5.72;3.72;;;;;;;27.63;67.58;100013.47;5029569;28;20208;-72
2022/07/05 03:31:49;;;;;;;9.23;3.40;;;;;;;28.07;68.12;100056.31;5031090;28;20594;-73
2022/07/05 03:34:16;;;;;;;5.45;3.20;;;;;;;28.30;66.97;100057.63;5031145;28;20207;-72
2022/07/05 03:36:43;;;;;;;6.65;3.40;;;;;;;28.46;65.79;100043.31;5019692;28;20778;-71
2022/07/05 03:39:10;;;;;;;12.85;3.22;;;;;;;28.98;65.19;100058.88;5030748;28;20723;-72
2022/07/05 03:41:38;;;;;;;4.43;3.63;;;;;;;29.36;62.21;100061.91;5030718;28;20191;-73
2022/07/05 03:44:05;;;;;;;7.13;3.80;;;;;;;29.70;59.98;100063.28;5030749;28;20605;-72
2022/07/05 03:46:32;;;;;;;5.10;3.38;;;;;;;30.01;57.91;100066.59;5030978;28;20200;-72
2022/07/05 03:48:58;;;;;;;9.32;4.05;;;;;;;30.31;56.98;100062.84;5030874;28;20574;-71
2022/07/05 03:51:25;;;;;;;6.00;3.25;;;;;;;30.51;54.47;100049.00;5030893;28;20554;-72
2022/07/05 03:53:52;;;;;;;5.20;3.60;;;;;;;31.09;52.45;100071.81;5031074;28;20192;-70
2022/07/05 03:56:20;;;;;;;6.53;4.28;;;;;;;31.32;52.05;100063.03;5030347;28;20219;-73
2022/07/05 03:58:50;;;;;;;8.52;4.28;;;;;;;30.71;53.13;100075.31;5030579;28;20200;-72
2022/07/05 04:01:17;;;;;;;10.07;3.88;;;;;;;30.57;52.54;100064.69;5028245;28;20215;-71
2022/07/05 04:03:43;;;;;;;9.48;3.40;;;;;;;30.37;51.57;100067.78;5030065;28;20250;-71
2022/07/05 04:06:11;;;;;;;4.78;3.20;;;;;;;30.87;48.86;100051.84;4993375;28;20203;-72
2022/07/05 04:08:38;;;;;;;10.88;3.30;;;;;;;31.29;47.17;100069.47;5034656;28;20222;-73
2022/07/05 04:11:05;;;;;;;4.00;2.80;;;;;;;31.35;47.05;100068.19;5035005;28;20194;-72
2022/07/05 04:13:31;;;;;;;2.90;2.70;;;;;;;31.16;46.84;100073.13;4999294;28;20668;-72
2022/07/05 04:16:00;;;;;;;3.00;2.70;;;;;;;31.48;46.12;100058.28;5034445;28;20272;-72
2022/07/05 04:18:27;;;;;;;8.98;2.75;;;;;;;31.92;45.15;100064.00;5034374;28;20196;-73
2022/07/05 04:20:53;;;;;;;3.83;3.10;;;;;;;32.04;45.76;100056.00;5034617;28;20210;-72
2022/07/05 04:23:20;;;;;;;3.25;2.95;;;;;;;32.10;45.04;100060.97;5000141;28;20204;-73
2022/07/05 04:25:47;;;;;;;9.77;3.67;;;;;;;31.82;46.02;100041.50;5035069;28;20659;-72
2022/07/05 04:28:14;;;;;;;8.48;3.47;;;;;;;32.59;44.49;100059.00;5034410;28;20195;-73
2022/07/05 04:30:41;;;;;;;3.92;3.22;;;;;;;33.20;45.07;100073.09;5034458;28;20203;-72
2022/07/05 04:33:09;;;;;;;6.28;3.20;;;;;;;33.45;45.80;100054.03;5000158;28;20266;-74
2022/07/05 04:35:36;;;;;;;3.75;3.30;;;;;;;34.14;44.89;100065.50;5033818;28;20199;-72
2022/07/05 04:38:03;;;;;;;8.18;3.35;;;;;;;34.72;44.08;100066.84;5034503;28;20195;-72
2022/07/05 04:40:30;;;;;;;11.68;3.88;;;;;;;34.94;45.28;100064.00;5014990;28;20694;-72
2022/07/05 04:42:57;;;;;;;5.72;3.90;;;;;;;34.76;45.62;100057.50;5033880;28;20192;-70
2022/07/05 04:45:24;;;;;;;4.38;3.85;;;;;;;35.23;44.56;100064.22;5034221;28;20196;-72
2022/07/05 04:47:51;;;;;;;8.18;3.88;;;;;;;35.54;43.44;100074.00;5034413;28;20210;-72
2022/07/05 04:50:19;;;;;;;9.30;4.53;;;;;;;35.41;43.12;100073.38;5033605;28;20265;-71
2022/07/05 04:52:46;;;;;;;13.18;3.65;;;;;;;35.76;42.94;100078.38;5034247;28;20200;-71
2022/07/05 04:55:13;;;;;;;10.27;4.05;;;;;;;36.32;42.20;100083.22;5032475;28;21647;-71
2022/07/05 04:57:40;;;;;;;9.85;3.97;;;;;;;36.59;41.10;100084.22;4999221;28;20238;-71
2022/07/05 05:00:08;;;;;;;13.00;4.28;;;;;;;35.49;45.01;100092.44;5033801;28;20231;-72
2022/07/05 05:02:35;;;;;;;19.52;4.90;;;;;;;33.18;51.03;100091.16;5032375;28;20199;-72
2022/07/05 05:05:02;;;;;;;12.82;4.22;;;;;;;31.82;56.45;100095.13;5032447;28;20208;-73
2022/07/05 05:07:31;;;;;;;16.10;4.18;;;;;;;31.36;60.29;100072.56;5033345;28;20204;-73
2022/07/05 05:09:58;;;;;;;20.05;4.50;;;;;;;31.33;59.92;100072.78;5032762;28;20207;-72
2022/07/05 05:12:24;;;;;;;18.58;4.97;;;;;;;31.05;62.49;100097.09;5032116;28;20586;-71
2022/07/05 05:14:51;;;;;;;10.05;4.18;;;;;;;30.91;63.07;100098.03;4999656;28;20208;-70
2022/07/05 05:17:18;;;;;;;8.55;3.85;;;;;;;31.17;61.12;100090.91;5031524;28;20623;-70
2022/07/05 05:19:45;;;;;;;14.98;4.63;;;;;;;31.18;61.70;100098.81;5015276;28;20207;-70
2022/07/05 05:22:12;;;;;;;13.55;4.47;;;;;;;31.09;63.87;100099.47;5020028;28;20203;-71
2022/07/05 05:24:40;;;;;;;14.85;4.78;;;;;;;31.96;60.33;100086.09;5030902;28;20236;-71
2022/07/05 05:27:07;;;;;;;12.50;4.75;;;;;;;32.98;57.22;100073.88;5030924;28;20591;-71
2022/07/05 05:29:34;;;;;;;10.30;4.72;;;;;;;34.50;51.98;100110.03;5017257;28;20208;-71
2022/07/05 05:32:01;;;;;;;10.40;5.53;;;;;;;35.13;49.15;100107.31;5024703;28;20192;-71
2022/07/05 05:34:28;;;;;;;104.65;8.73;;;;;;;35.72;48.03;100118.25;5028463;28;20272;-75
2022/07/05 05:36:55;;;;;;;12.88;5.18;;;;;;;36.32;46.58;100119.16;5024345;28;20375;-71
2022/07/05 05:39:22;;;;;;;12.65;5.10;;;;;;;36.49;45.57;100118.47;5026840;28;20208;-71
2022/07/05 05:41:50;;;;;;;23.33;5.47;;;;;;;37.17;43.53;100130.97;5033083;28;20207;-71
2022/07/05 05:44:17;;;;;;;14.25;5.43;;;;;;;37.12;43.26;100125.19;5018944;28;20212;-70
2022/07/05 05:46:44;;;;;;;15.75;4.78;;;;;;;36.89;43.38;100122.91;5013345;28;20660;-72
2022/07/05 05:49:10;;;;;;;26.67;5.43;;;;;;;36.19;43.60;100123.97;4994890;28;20216;-70
2022/07/05 05:51:37;;;;;;;18.15;5.63;;;;;;;35.88;44.25;100125.00;5012938;28;20204;-69
2022/07/05 05:54:04;;;;;;;11.23;5.10;;;;;;;35.30;45.29;100108.53;5022109;28;20238;-70
2022/07/05 05:56:31;;;;;;;15.23;5.25;;;;;;;35.39;45.11;100129.28;5032529;28;20227;-69
2022/07/05 05:58:59;;;;;;;5.90;4.68;;;;;;;35.48;45.38;100122.25;5032351;28;20195;-68
2022/07/05 06:01:26;;;;;;;12.32;5.15;;;;;;;35.22;46.01;100133.47;5032471;28;20235;-70
2022/07/05 06:03:53;;;;;;;20.88;4.90;;;;;;;34.48;46.57;100137.09;5018673;28;20576;-69
2022/07/05 06:06:20;;;;;;;15.20;5.43;;;;;;;33.78;47.83;100140.09;5032197;28;20207;-72
2022/07/05 06:08:47;;;;;;;15.57;5.18;;;;;;;33.36;47.47;100117.47;5032237;28;20223;-73
2022/07/05 06:11:13;;;;;;;13.73;5.00;;;;;;;34.02;46.80;100139.13;5032225;28;20687;-74
2022/07/05 06:13:40;;;;;;;11.93;6.05;;;;;;;34.73;45.57;100141.31;5032129;28;20211;-72
2022/07/05 06:16:09;;;;;;;15.88;4.50;;;;;;;35.21;43.82;100142.53;5031897;28;20204;-72
2022/07/05 06:18:36;;;;;;;8.23;5.15;;;;;;;35.10;43.54;100141.72;5032169;28;20527;-72
2022/07/05 06:21:03;;;;;;;12.57;4.70;;;;;;;34.60;44.66;100141.47;5032002;28;20208;-72
2022/07/05 06:23:30;;;;;;;10.70;4.90;;;;;;;34.80;44.99;100140.66;5013569;28;20211;-72
2022/07/05 06:25:56;;;;;;;16.75;5.53;;;;;;;34.36;46.03;100136.25;5027216;28;20199;-72
2022/07/05 06:28:23;;;;;;;10.25;5.20;;;;;;;34.24;47.48;100117.59;4988298;28;20204;-72
2022/07/05 06:30:52;;;;;;;11.02;5.55;;;;;;;33.71;47.13;100146.13;5028112;28;20208;-72
2022/07/05 06:33:20;;;;;;;14.38;5.38;;;;;;;33.41;48.23;100138.63;5021338;28;20269;-72
2022/07/05 06:35:47;;;;;;;8.20;5.70;;;;;;;33.51;48.16;100128.84;5032074;28;20207;-72
2022/07/05 06:38:14;;;;;;;9.70;5.95;;;;;;;33.37;49.29;100142.50;5031818;28;20226;-73
2022/07/05 06:40:43;;;;;;;9.75;5.30;;;;;;;33.41;49.36;100133.25;5018096;28;20200;-72
2022/07/05 06:43:12;;;;;;;17.73;5.40;;;;;;;33.59;50.11;100137.16;5018396;28;20294;-73
2022/07/05 06:45:39;;;;;;;22.15;6.05;;;;;;;33.49;52.93;100129.94;5031600;28;20211;-72
2022/07/05 06:48:08;;;;;;;21.60;6.30;;;;;;;32.96;51.28;100132.28;4996305;28;20206;-72
2022/07/05 06:50:39;;;;;;;14.48;5.80;;;;;;;33.23;51.83;100134.69;5031858;28;20686;-72
2022/07/05 06:53:07;;;;;;;10.63;5.28;;;;;;;33.03;52.05;100141.56;5017707;28;20203;-72
2022/07/05 06:55:34;;;;;;;13.70;6.05;;;;;;;33.01;52.27;100140.81;5031275;28;20683;-73
2022/07/05 06:58:02;;;;;;;11.63;5.47;;;;;;;33.03;51.81;100132.66;5031616;28;20223;-72
2022/07/05 07:00:29;;;;;;;8.65;5.55;;;;;;;32.69;52.92;100139.72;5031136;28;20234;-72
2022/07/05 07:02:56;;;;;;;11.30;5.57;;;;;;;32.97;51.83;100130.41;5017276;28;20208;-72
2022/07/05 07:05:23;;;;;;;21.70;8.10;;;;;;;33.07;51.23;100136.81;5031400;28;20207;-72
2022/07/05 07:10:36;;;;;;;16.27;6.35;;;;;;;32.95;51.02;100130.56;5019640;28;20206;-72
2022/07/05 07:13:03;;;;;;;16.55;6.40;;;;;;;33.18;51.49;100126.97;5031165;28;20210;-73
2022/07/05 07:15:30;;;;;;;15.48;6.53;;;;;;;32.60;51.21;100133.25;5031375;28;20200;-74
2022/07/05 07:17:57;;;;;;;23.27;6.55;;;;;;;32.15;52.87;100124.03;5031004;28;20238;-73
2022/07/05 07:20:24;;;;;;;10.52;6.47;;;;;;;32.62;52.69;100139.34;5031014;28;20207;-72
2022/07/05 07:22:52;;;;;;;13.88;6.05;;;;;;;32.83;50.30;100104.63;5030934;28;20203;-71
2022/07/05 07:25:20;;;;;;;9.90;6.70;;;;;;;32.94;49.84;100126.16;5016870;28;20206;-72
2022/07/05 07:27:49;;;;;;;7.10;5.63;;;;;;;32.85;49.04;100130.41;5030805;28;20282;-72
2022/07/05 07:30:17;;;;;;;11.77;5.82;;;;;;;32.48;50.09;100128.75;5030544;28;20200;-72
2022/07/05 07:32:45;;;;;;;8.20;5.50;;;;;;;32.65;50.26;100114.94;5030933;28;20200;-72
2022/07/05 07:35:12;;;;;;;17.30;5.45;;;;;;;33.26;48.15;100123.69;5020126;28;20208;-73
2022/07/05 07:37:39;;;;;;;13.48;5.40;;;;;;;33.11;47.66;100120.34;5010955;28;20219;-72
2022/07/05 07:40:09;;;;;;;13.45;5.00;;;;;;;33.43;47.35;100135.81;5011048;28;20563;-72
2022/07/05 07:42:36;;;;;;;11.07;6.05;;;;;;;33.00;47.62;100127.53;5026361;28;20204;-72
2022/07/05 07:45:03;;;;;;;13.77;5.35;;;;;;;33.19;48.34;100134.06;5030993;28;20195;-71
2022/07/05 07:47:30;;;;;;;7.30;4.88;;;;;;;33.60;48.03;100132.66;5030714;28;20705;-71
2022/07/05 07:49:57;;;;;;;14.05;5.32;;;;;;;33.54;48.06;100133.09;4996053;28;20668;-73
2022/07/05 07:52:24;;;;;;;15.68;7.50;;;;;;;33.67;47.81;100128.53;5030751;28;20203;-71
2022/07/05 07:54:51;;;;;;;10.05;5.53;;;;;;;33.81;47.26;100129.13;5030583;28;20660;-71
2022/07/05 07:57:19;;;;;;;4.90;4.40;;;;;;;33.81;47.35;100130.97;5030395;28;20235;-71
2022/07/05 07:59:46;;;;;;;11.60;5.10;;;;;;;33.54;47.36;100130.41;4995385;28;20231;-71
2022/07/05 08:02:14;;;;;;;11.30;4.70;;;;;;;32.97;48.47;100112.47;4995638;28;20282;-71
2022/07/05 08:04:41;;;;;;;9.45;4.60;;;;;;;33.03;49.04;100114.69;5030624;28;20265;-72
2022/07/05 08:07:08;;;;;;;8.70;4.95;;;;;;;33.41;49.23;100125.16;5030183;28;20195;-71
2022/07/05 08:09:34;;;;;;;17.45;5.30;;;;;;;33.45;48.42;100121.28;5030645;28;20211;-72
2022/07/05 08:12:01;;;;;;;7.72;4.88;;;;;;;33.51;48.34;100122.59;5016279;28;20204;-72
2022/07/05 08:14:29;;;;;;;10.85;4.05;;;;;;;33.45;48.13;100118.56;5030482;28;20207;-72
2022/07/05 08:16:56;;;;;;;7.68;4.55;;;;;;;33.45;48.35;100118.56;5030601;28;20234;-72
2022/07/05 08:22:08;;;;;;;4.97;4.30;;;;;;;33.60;47.97;100117.38;5030419;28;20210;-72
2022/07/05 08:24:35;;;;;;;7.22;4.40;;;;;;;33.63;47.66;100111.78;5030423;28;20304;-72
2022/07/05 08:27:02;;;;;;;6.75;3.83;;;;;;;33.30;47.58;100114.41;4995877;28;20211;-72
2022/07/05 08:29:31;;;;;;;5.35;4.13;;;;;;;33.54;47.79;100109.75;5030215;28;20226;-72
2022/07/05 08:31:58;;;;;;;6.57;4.50;;;;;;;33.29;47.74;100102.78;5030258;28;20208;-73
2022/07/05 08:34:25;;;;;;;4.57;3.80;;;;;;;33.10;48.44;100097.13;5030447;28;20203;-71
2022/07/05 08:36:51;;;;;;;9.32;4.07;;;;;;;33.37;48.17;100104.88;5020075;28;20211;-73
2022/07/05 08:39:18;;;;;;;8.25;4.40;;;;;;;33.49;48.62;100098.53;4989836;28;20207;-72
2022/07/05 08:41:50;;;;;;;15.30;4.00;;;;;;;33.52;47.81;100102.81;5018930;28;20603;-72
2022/07/05 08:44:19;;;;;;;4.03;3.20;;;;;;;33.27;48.24;100072.50;5029756;28;20228;-72
2022/07/05 08:46:50;;;;;;;12.75;4.20;;;;;;;33.19;48.87;100103.63;5030004;28;20208;-72
2022/07/05 08:49:22;;;;;;;7.40;4.13;;;;;;;33.49;48.63;100101.22;5030211;28;20210;-72
2022/07/05 08:51:50;;;;;;;6.10;3.97;;;;;;;33.73;47.99;100101.13;5030255;28;20235;-71
2022/07/05 08:54:17;;;;;;;5.90;4.20;;;;;;;33.70;47.80;100113.00;5032166;28;20278;-72
2022/07/05 08:56:44;;;;;;;6.30;3.97;;;;;;;33.91;47.87;100094.25;5020017;28;20195;-72
2022/07/05 08:59:11;;;;;;;5.38;3.88;;;;;;;34.17;46.32;100101.09;5033533;28;20736;-71
2022/07/05 09:01:39;;;;;;;8.55;4.30;;;;;;;34.49;45.10;100101.09;5033497;28;20231;-73
2022/07/05 09:04:10;;;;;;;6.18;3.88;;;;;;;34.12;45.04;100099.69;5033544;28;20204;-71
2022/07/05 09:06:40;;;;;;;6.15;3.60;;;;;;;33.97;44.56;100107.19;5019496;28;20207;-71
2022/07/05 09:09:08;;;;;;;8.40;3.85;;;;;;;34.51;43.66;100103.63;5033839;28;20215;-73
2022/07/05 09:11:38;;;;;;;8.32;3.83;;;;;;;34.74;42.27;100099.91;5030961;28;20211;-71
2022/07/05 09:14:06;;;;;;;6.32;4.10;;;;;;;34.74;43.00;100098.06;5004704;28;20196;-73
2022/07/05 09:16:33;;;;;;;6.75;4.18;;;;;;;35.16;40.25;100106.19;5033391;28;20210;-72
2022/07/05 09:19:08;;;;;;;10.82;3.60;;;;;;;35.22;36.67;100109.19;4998507;28;20299;-71
2022/07/05 09:21:36;;;;;;;7.40;4.13;;;;;;;34.95;37.80;100108.00;5033290;28;20588;-72
2022/07/05 09:24:04;;;;;;;8.32;3.90;;;;;;;34.91;39.00;100103.84;5033340;28;20196;-71
2022/07/05 09:26:36;;;;;;;4.57;3.90;;;;;;;35.19;37.96;100103.22;4989051;28;20208;-72
2022/07/05 09:29:04;;;;;;;9.68;4.65;;;;;;;34.88;37.31;100090.66;4992525;28;20231;-70
2022/07/05 09:31:33;;;;;;;8.43;4.05;;;;;;;35.00;36.65;100089.56;4978954;28;20205;-70
2022/07/05 09:34:07;;;;;;;8.88;4.13;;;;;;;35.14;38.13;100092.00;5013728;28;20212;-70
2022/07/05 09:36:52;;;;;;;4.50;4.10;;;;;;;35.22;37.24;100067.88;4994988;28;20207;-70
2022/07/05 09:39:19;;;;;;;4.70;3.78;;;;;;;35.32;36.60;100093.06;5029249;28;20226;-70
2022/07/05 09:41:46;;;;;;;5.60;4.22;;;;;;;35.04;37.12;100078.41;4998373;28;20211;-70
2022/07/05 09:44:26;;;;;;;6.93;4.38;;;;;;;35.22;38.66;100081.38;5032955;28;20619;-69
2022/07/05 09:47:10;;;;;;;7.57;3.85;;;;;;;35.12;37.99;100077.78;5032747;28;20265;-69
2022/07/05 09:49:39;;;;;;;6.32;3.80;;;;;;;35.25;37.90;100079.25;5032705;28;20492;-70
2022/07/05 09:52:07;;;;;;;6.72;3.75;;;;;;;35.51;40.12;100084.19;5032779;28;20203;-70
2022/07/05 09:54:33;;;;;;;5.65;3.90;;;;;;;35.37;37.85;100077.34;5016507;28;20196;-71
2022/07/05 09:57:00;;;;;;;7.90;4.30;;;;;;;35.33;37.19;100075.88;5021048;28;20275;-71
2022/07/05 09:59:27;;;;;;;8.30;4.20;;;;;;;35.45;38.12;100068.56;5032265;28;20231;-70
2022/07/05 10:01:54;;;;;;;4.85;3.97;;;;;;;35.38;36.46;100062.88;5032545;28;20195;-71
2022/07/05 10:04:21;;;;;;;10.32;4.53;;;;;;;35.49;36.06;100070.88;4997453;28;20191;-72
2022/07/05 10:06:49;;;;;;;4.72;4.00;;;;;;;35.46;35.63;100063.03;4997666;28;20207;-72
2022/07/05 10:09:18;;;;;;;6.05;3.70;;;;;;;35.01;35.90;100072.41;5032394;28;20227;-71
2022/07/05 10:11:46;;;;;;;5.63;4.18;;;;;;;35.22;36.06;100057.09;5032313;28;20620;-72
2022/07/05 10:14:17;;;;;;;7.22;4.13;;;;;;;34.98;37.71;100060.06;5032001;28;20195;-71
2022/07/05 10:16:48;;;;;;;5.03;4.55;;;;;;;35.02;36.91;100060.66;5032215;28;20257;-71
2022/07/05 10:19:19;;;;;;;10.13;4.10;;;;;;;35.12;37.18;100042.72;5031951;28;20234;-72
2022/07/05 10:21:47;;;;;;;12.23;4.15;;;;;;;35.02;37.05;100057.97;5032507;28;20619;-71
2022/07/05 10:24:17;;;;;;;8.98;4.30;;;;;;;35.16;35.72;100063.03;5031934;28;20200;-73
2022/07/05 10:26:47;;;;;;;10.55;4.05;;;;;;;35.16;36.72;100063.03;5005889;28;20679;-72
2022/07/05 10:29:15;;;;;;;7.05;4.00;;;;;;;35.27;35.81;100062.97;5032523;28;20281;-72
2022/07/05 10:31:44;;;;;;;7.20;4.22;;;;;;;35.21;36.88;100055.41;5026237;28;20851;-71
2022/07/05 10:34:11;;;;;;;12.27;4.75;;;;;;;35.62;36.49;100063.41;5027386;28;20257;-70
2022/07/05 10:36:40;;;;;;;11.82;4.35;;;;;;;35.44;36.51;100056.06;4995608;28;20261;-72
2022/07/05 10:39:08;;;;;;;11.77;4.35;;;;;;;35.24;36.52;100034.44;5030424;28;20227;-71
2022/07/05 10:41:39;;;;;;;4.80;4.18;;;;;;;35.25;36.08;100054.13;5030726;28;20203;-72
2022/07/05 10:44:07;;;;;;;10.23;5.22;;;;;;;35.39;35.35;100048.38;5030925;28;20191;-72
2022/07/05 10:46:35;;;;;;;6.22;4.10;;;;;;;35.59;35.38;100042.06;5030209;28;20656;-74
2022/07/05 10:49:14;;;;;;;10.32;4.10;;;;;;;35.50;35.71;100005.09;5030332;28;20192;-72
2022/07/05 10:51:41;;;;;;;10.93;3.88;;;;;;;35.62;35.05;100033.72;5031652;28;20195;-72
2022/07/05 10:54:08;;;;;;;9.45;4.10;;;;;;;35.61;35.76;100026.63;5031683;28;20206;-72
2022/07/05 10:56:38;;;;;;;3.80;3.47;;;;;;;35.48;36.59;100003.56;5032014;28;20305;-73
2022/07/05 10:59:11;;;;;;;5.25;4.22;;;;;;;35.25;36.79;100022.63;5031514;28;20317;-72
2022/07/05 11:01:42;;;;;;;7.68;3.90;;;;;;;35.73;37.10;100019.28;5031543;28;20231;-73
2022/07/05 11:04:32;;;;;;;4.15;3.80;;;;;;;36.10;35.65;100027.59;5031593;28;20195;-73
2022/07/05 11:06:59;;;;;;;8.38;4.10;;;;;;;35.90;35.13;100023.13;4996850;28;20192;-71
2022/07/05 11:09:26;;;;;;;9.35;4.25;;;;;;;35.96;35.98;100028.00;5031429;28;20204;-73
2022/07/05 11:12:06;;;;;;;5.43;3.92;;;;;;;36.31;34.81;100014.81;5031575;28;20569;-73
2022/07/05 11:14:37;;;;;;;7.30;4.30;;;;;;;36.73;35.22;100024.31;5031255;28;20203;-73
2022/07/05 11:17:29;;;;;;;10.18;4.47;;;;;;;36.54;36.00;100016.22;5031037;28;20294;-72
2022/07/05 11:20:11;;;;;;;7.20;4.78;;;;;;;36.44;35.41;100004.56;5030946;28;20270;-73
2022/07/05 11:22:41;;;;;;;7.97;3.72;;;;;;;36.42;34.90;100011.97;5031331;28;20200;-73
2022/07/05 11:25:11;;;;;;;7.50;4.10;;;;;;;36.43;34.80;99986.63;5031434;28;20199;-72
2022/07/05 11:28:06;;;;;;;8.90;4.32;;;;;;;36.62;34.58;99996.59;4996630;28;20207;-72
2022/07/05 11:30:49;;;;;;;5.47;4.10;;;;;;;36.35;35.55;99989.22;5030660;28;20249;-72